Time;durP1;ratioP1;P1;durP2;ratioP2;P2;SDS_P1;SDS_P2;PMS_P1;PMS_P2;Temp;Humidity;BMP_temperature;BMP_pressure;BME280_temperature;BME280_humidity;BME280_pressure;Samples;Min_cycle;Max_cycle;Signal;HPM_P1;HPM_P2
2023/08/23 00:01:32;;;;;;;4.70;4.10;;;28.90;61.30;;;;;;5013189;28;20235;-72
2023/08/23 00:03:57;;;;;;;3.60;3.30;;;28.90;61.30;;;;;;5013658;28;20240;-72
2023/08/23 00:06:23;;;;;;;4.37;3.97;;;28.90;61.30;;;;;;5013411;28;20169;-72
2023/08/23 00:08:49;;;;;;;4.10;3.80;;;28.90;61.30;;;;;;4995905;28;20242;-72
2023/08/23 00:11:14;;;;;;;4.13;3.73;;;28.90;61.30;;;;;;5013096;28;20222;-71
2023/08/23 00:13:40;;;;;;;4.27;3.87;;;28.90;61.40;;;;;;5013076;28;20184;-71
2023/08/23 00:16:06;;;;;;;3.60;3.30;;;28.90;61.40;;;;;;4995579;28;20180;-71
2023/08/23 00:18:31;;;;;;;3.97;3.60;;;28.90;61.40;;;;;;5012977;28;20223;-72
2023/08/23 00:20:57;;;;;;;4.50;4.10;;;28.90;61.40;;;;;;5012880;28;20203;-71
2023/08/23 00:23:22;;;;;;;3.77;3.47;;;28.90;61.50;;;;;;4979256;28;20658;-72
2023/08/23 00:25:48;;;;;;;3.97;3.67;;;28.90;61.40;;;;;;5013029;28;20173;-71
2023/08/23 00:28:15;;;;;;;3.50;3.20;;;28.90;61.40;;;;;;5012971;28;20642;-70
2023/08/23 00:30:49;;;;;;;3.80;3.50;;;28.80;61.40;;;;;;5012886;28;20196;-71
2023/08/23 00:33:14;;;;;;;3.93;3.53;;;28.90;61.50;;;;;;5013426;28;20396;-72
2023/08/23 00:35:40;;;;;;;3.90;3.50;;;28.90;61.50;;;;;;5012812;28;20473;-71
2023/08/23 00:38:05;;;;;;;3.87;3.57;;;28.90;61.50;;;;;;5012875;28;20180;-71
2023/08/23 00:40:31;;;;;;;3.80;3.50;;;28.90;61.50;;;;;;5012900;28;20223;-71
2023/08/23 00:42:57;;;;;;;4.40;4.00;;;28.90;61.50;;;;;;5012952;28;20222;-71
2023/08/23 00:45:22;;;;;;;4.87;3.17;;;28.90;61.50;;;;;;5012923;28;20251;-71
2023/08/23 00:47:49;;;;;;;3.87;3.43;;;28.90;61.50;;;;;;5012753;28;20235;-71
2023/08/23 00:50:15;;;;;;;3.73;3.43;;;28.90;61.50;;;;;;5012573;28;20282;-71
2023/08/23 00:52:41;;;;;;;3.43;3.13;;;28.90;61.60;;;;;;5012649;28;20415;-71
2023/08/23 00:55:07;;;;;;;3.87;3.57;;;28.90;61.60;;;;;;5012661;28;20415;-72
2023/08/23 00:57:33;;;;;;;3.67;3.37;;;28.90;61.60;;;;;;5012713;28;20408;-72
2023/08/23 00:59:58;;;;;;;4.30;3.90;;;28.90;61.60;;;;;;4994912;28;20905;-72
2023/08/23 01:02:24;;;;;;;3.83;3.00;;;28.90;61.60;;;;;;5012749;28;20207;-71
2023/08/23 01:04:50;;;;;;;3.43;3.13;;;28.90;61.60;;;;;;5012514;28;20176;-72
2023/08/23 01:07:23;;;;;;;3.90;3.60;;;28.90;61.60;;;;;;5012601;28;20302;-71
2023/08/23 01:09:57;;;;;;;3.80;3.50;;;28.90;61.70;;;;;;5012667;28;20202;-71
2023/08/23 01:12:45;;;;;;;3.77;3.47;;;28.90;61.70;;;;;;5012685;28;20400;-71
2023/08/23 01:15:12;;;;;;;4.37;3.07;;;28.90;61.60;;;;;;5012561;28;20411;-72
2023/08/23 01:17:42;;;;;;;3.90;3.60;;;28.90;61.70;;;;;;5012548;28;20415;-72
2023/08/23 01:20:13;;;;;;;3.47;3.17;;;28.90;61.70;;;;;;4994095;28;20466;-71
2023/08/23 01:22:44;;;;;;;3.50;3.20;;;28.90;62.60;;;;;;4994871;28;20419;-71
2023/08/23 01:25:10;;;;;;;3.63;3.33;;;28.90;61.80;;;;;;5012344;28;20408;-71
2023/08/23 01:27:35;;;;;;;3.80;3.50;;;28.90;61.80;;;;;;5012031;28;20407;-71
2023/08/23 01:30:01;;;;;;;4.50;3.87;;;28.90;61.80;;;;;;5011709;28;20177;-72
2023/08/23 01:32:50;;;;;;;3.47;3.23;;;28.80;61.70;;;;;;4994786;28;20650;-72
2023/08/23 01:35:22;;;;;;;3.70;3.40;;;28.90;61.80;;;;;;5016090;28;20211;-72
2023/08/23 01:37:52;;;;;;;3.73;3.47;;;28.90;61.80;;;;;;4998726;28;20415;-72
2023/08/23 01:40:18;;;;;;;3.97;3.67;;;28.90;61.80;;;;;;5016078;28;20469;-71
2023/08/23 01:42:46;;;;;;;3.90;3.60;;;28.90;61.90;;;;;;5016277;28;20407;-71
2023/08/23 01:45:11;;;;;;;3.30;2.93;;;28.90;61.90;;;;;;5015963;28;20429;-72
2023/08/23 01:47:37;;;;;;;3.80;3.50;;;28.90;61.90;;;;;;5016202;28;20490;-71
2023/08/23 01:50:04;;;;;;;4.50;3.43;;;28.90;62.80;;;;;;5015773;28;20638;-71
2023/08/23 01:52:29;;;;;;;3.23;3.03;;;28.90;61.90;;;;;;5015591;28;20168;-71
2023/08/23 01:54:55;;;;;;;3.57;3.27;;;28.90;61.90;;;;;;5015705;28;20445;-71
2023/08/23 01:57:21;;;;;;;3.67;3.20;;;28.90;61.90;;;;;;5015816;28;20626;-72
2023/08/23 01:59:47;;;;;;;4.13;3.73;;;28.90;61.90;;;;;;5015459;28;20212;-71
2023/08/23 02:02:13;;;;;;;3.30;3.10;;;28.90;61.90;;;;;;5015371;28;20620;-72
2023/08/23 02:04:38;;;;;;;3.13;2.83;;;28.90;61.90;;;;;;5015431;28;20455;-71
2023/08/23 02:07:04;;;;;;;3.20;3.00;;;28.90;62.00;;;;;;5015466;28;20211;-72
2023/08/23 02:09:31;;;;;;;3.73;3.43;;;28.90;62.00;;;;;;5015415;28;20176;-71
2023/08/23 02:11:57;;;;;;;3.27;3.00;;;28.90;62.00;;;;;;5015176;28;20200;-71
2023/08/23 02:14:22;;;;;;;3.60;3.30;;;28.90;62.00;;;;;;5015235;28;20427;-72
2023/08/23 02:16:48;;;;;;;3.80;3.50;;;28.90;62.00;;;;;;5015204;28;20725;-71
2023/08/23 02:19:13;;;;;;;3.23;2.73;;;28.90;62.00;;;;;;4997469;28;20204;-72
2023/08/23 02:21:39;;;;;;;3.80;3.50;;;28.90;62.00;;;;;;4997685;28;20200;-71
2023/08/23 02:24:05;;;;;;;3.90;3.60;;;28.90;62.00;;;;;;5015225;28;20270;-71
2023/08/23 02:26:31;;;;;;;3.37;3.17;;;28.90;62.00;;;;;;5015092;28;20168;-71
2023/08/23 02:28:56;;;;;;;3.40;3.20;;;28.90;62.10;;;;;;5015744;28;20415;-72
2023/08/23 02:31:22;;;;;;;4.40;3.10;;;28.80;61.90;;;;;;5015010;28;20303;-72
2023/08/23 02:33:47;;;;;;;3.83;3.53;;;28.90;62.00;;;;;;5015038;28;20177;-71
2023/08/23 02:36:13;;;;;;;3.67;3.37;;;28.90;62.00;;;;;;5015076;28;20212;-71
2023/08/23 02:38:38;;;;;;;3.73;3.40;;;28.90;62.10;;;;;;5014827;28;20605;-71
2023/08/23 02:41:05;;;;;;;3.23;3.03;;;28.90;62.10;;;;;;4997151;28;20239;-71
2023/08/23 02:43:30;;;;;;;3.53;3.23;;;28.90;62.10;;;;;;5014981;28;20260;-72
2023/08/23 02:45:56;;;;;;;3.60;3.30;;;28.90;62.10;;;;;;5014283;28;20503;-72
2023/08/23 02:48:21;;;;;;;3.30;2.97;;;28.90;62.10;;;;;;4997216;28;20264;-71
2023/08/23 02:50:47;;;;;;;2.90;2.70;;;28.90;62.20;;;;;;4997108;28;20572;-72
2023/08/23 02:53:12;;;;;;;3.67;3.47;;;28.80;62.00;;;;;;5014636;28;20654;-71
2023/08/23 02:55:38;;;;;;;3.80;3.50;;;28.90;62.10;;;;;;5014515;28;20246;-71
2023/08/23 02:58:05;;;;;;;3.50;3.20;;;28.90;62.20;;;;;;5014482;28;20177;-72
2023/08/23 03:00:30;;;;;;;3.60;3.30;;;28.90;62.20;;;;;;5014360;28;20265;-72
2023/08/23 03:02:56;;;;;;;3.53;3.20;;;28.90;62.20;;;;;;5014305;28;20516;-72
2023/08/23 03:05:22;;;;;;;2.90;2.70;;;28.90;62.20;;;;;;4996748;28;20184;-71
2023/08/23 03:07:47;;;;;;;3.07;2.87;;;28.90;62.20;;;;;;5014450;28;20176;-71
2023/08/23 03:10:13;;;;;;;3.53;3.23;;;28.90;62.20;;;;;;5014343;28;20196;-71
2023/08/23 03:12:39;;;;;;;3.03;2.80;;;28.90;62.20;;;;;;5014288;28;20187;-71
2023/08/23 03:15:05;;;;;;;3.30;3.03;;;28.90;62.20;;;;;;5014205;28;20187;-72
2023/08/23 03:17:31;;;;;;;3.97;3.67;;;28.90;62.30;;;;;;5014175;28;20184;-72
2023/08/23 03:19:57;;;;;;;2.97;2.67;;;28.90;62.30;;;;;;5013897;28;20490;-71
2023/08/23 03:22:23;;;;;;;3.23;2.93;;;28.90;62.40;;;;;;5014080;28;20411;-72
2023/08/23 03:24:49;;;;;;;3.20;2.77;;;28.90;62.30;;;;;;5014048;28;20904;-72
2023/08/23 03:27:15;;;;;;;3.53;3.23;;;28.90;62.30;;;;;;5014054;28;20196;-71
2023/08/23 03:29:47;;;;;;;3.37;3.07;;;28.90;62.30;;;;;;5013925;28;20450;-72
2023/08/23 03:32:14;;;;;;;2.90;2.70;;;28.80;62.30;;;;;;4996624;28;20318;-71
2023/08/23 03:34:40;;;;;;;3.40;3.13;;;28.90;62.40;;;;;;5013961;28;20900;-72
2023/08/23 03:37:06;;;;;;;3.63;3.33;;;28.90;62.30;;;;;;5013976;28;20469;-72
2023/08/23 03:39:31;;;;;;;3.13;2.83;;;28.90;62.40;;;;;;5013904;28;20200;-71
2023/08/23 03:41:57;;;;;;;3.27;2.97;;;28.90;62.40;;;;;;5013678;28;20200;-72
2023/08/23 03:44:23;;;;;;;3.70;3.40;;;28.90;62.40;;;;;;5013970;28;20206;-71
2023/08/23 03:46:48;;;;;;;3.00;2.80;;;28.90;62.40;;;;;;5013841;28;20545;-71
2023/08/23 03:49:14;;;;;;;3.17;2.97;;;28.90;62.40;;;;;;5013637;28;20203;-71
2023/08/23 03:51:40;;;;;;;3.13;2.93;;;28.90;62.40;;;;;;5013676;28;20200;-72
2023/08/23 03:54:05;;;;;;;3.33;3.03;;;28.90;62.40;;;;;;5013606;28;20176;-72
2023/08/23 03:56:31;;;;;;;3.40;3.17;;;28.90;62.40;;;;;;4995159;28;20176;-72
2023/08/23 03:58:58;;;;;;;3.13;2.90;;;28.90;62.50;;;;;;5013429;28;20204;-72
2023/08/23 04:01:24;;;;;;;3.07;2.87;;;28.90;62.40;;;;;;5013373;28;20204;-71
2023/08/23 04:03:49;;;;;;;3.00;2.70;;;28.90;62.40;;;;;;5013427;28;20958;-72
2023/08/23 04:06:15;;;;;;;3.23;2.93;;;28.90;62.40;;;;;;5013449;28;20491;-72
2023/08/23 04:08:41;;;;;;;2.77;2.57;;;28.90;62.50;;;;;;5013392;28;20203;-71
2023/08/23 04:11:06;;;;;;;3.53;3.23;;;28.90;62.40;;;;;;4995622;28;20239;-72
2023/08/23 04:13:32;;;;;;;2.77;2.57;;;28.90;62.50;;;;;;5013120;28;20191;-72
2023/08/23 04:15:58;;;;;;;2.93;2.73;;;28.90;62.50;;;;;;5013251;28;20207;-70
2023/08/23 04:18:24;;;;;;;5.50;3.10;;;28.90;62.50;;;;;;4995496;28;20275;-72
2023/08/23 04:21:00;;;;;;;3.03;2.80;;;28.90;62.50;;;;;;5013106;28;20793;-72
2023/08/23 04:23:26;;;;;;;3.20;3.00;;;28.90;62.50;;;;;;5013199;28;20534;-71
2023/08/23 04:25:52;;;;;;;3.67;3.37;;;28.90;62.50;;;;;;5013111;28;20404;-71
2023/08/23 04:28:17;;;;;;;2.80;2.60;;;28.80;62.40;;;;;;5012873;28;20179;-71
2023/08/23 04:30:43;;;;;;;3.27;3.00;;;28.90;62.50;;;;;;5012868;28;20196;-71
2023/08/23 04:33:10;;;;;;;3.30;3.10;;;28.90;62.50;;;;;;5013343;28;20176;-71
2023/08/23 04:35:36;;;;;;;3.10;2.90;;;28.90;62.60;;;;;;5012942;28;20165;-71
2023/08/23 04:38:01;;;;;;;3.30;3.10;;;28.90;62.50;;;;;;5012730;28;20419;-71
2023/08/23 04:40:28;;;;;;;3.00;2.80;;;28.90;62.60;;;;;;5028045;28;20481;-72
2023/08/23 04:42:53;;;;;;;2.90;2.60;;;28.90;62.50;;;;;;5013094;28;20526;-71
2023/08/23 04:45:19;;;;;;;3.13;2.83;;;28.90;62.50;;;;;;5012737;28;20411;-71
2023/08/23 04:47:44;;;;;;;3.27;2.97;;;28.80;62.50;;;;;;5012684;28;20709;-72
2023/08/23 04:50:10;;;;;;;2.80;2.60;;;28.80;62.50;;;;;;5012669;28;20230;-71
2023/08/23 04:52:35;;;;;;;3.30;3.00;;;28.80;62.50;;;;;;5012858;28;20175;-72
2023/08/23 04:55:01;;;;;;;2.97;2.70;;;28.80;62.50;;;;;;4995166;28;20271;-71
2023/08/23 04:57:27;;;;;;;3.60;3.30;;;28.90;62.60;;;;;;4995019;28;20612;-71
2023/08/23 04:59:53;;;;;;;3.00;2.70;;;28.90;62.60;;;;;;5012742;28;20263;-71
2023/08/23 05:02:19;;;;;;;2.97;2.77;;;28.90;62.60;;;;;;5027636;28;20196;-72
2023/08/23 05:04:44;;;;;;;2.70;2.50;;;28.90;62.60;;;;;;5012527;28;20546;-72
2023/08/23 05:07:10;;;;;;;3.13;2.93;;;28.90;62.60;;;;;;5013083;28;20641;-71
2023/08/23 05:09:35;;;;;;;3.53;3.23;;;28.90;62.60;;;;;;5017027;28;20177;-72
2023/08/23 05:12:01;;;;;;;2.70;2.50;;;28.90;62.60;;;;;;5016483;28;20207;-72
2023/08/23 05:14:27;;;;;;;3.23;2.93;;;28.90;62.70;;;;;;5016612;28;20577;-72
2023/08/23 05:16:52;;;;;;;2.97;2.77;;;28.90;62.60;;;;;;5016596;28;20176;-71
2023/08/23 05:19:18;;;;;;;2.67;2.43;;;28.80;62.60;;;;;;5016434;28;20547;-71
2023/08/23 05:21:43;;;;;;;2.80;2.60;;;28.90;62.70;;;;;;5016362;28;20620;-72
2023/08/23 05:24:09;;;;;;;2.90;2.70;;;28.90;62.70;;;;;;5016316;28;20171;-71
2023/08/23 05:26:34;;;;;;;3.30;3.10;;;28.90;62.70;;;;;;5016321;28;20168;-72
2023/08/23 05:29:00;;;;;;;2.90;2.70;;;28.90;62.60;;;;;;4998759;28;20169;-72
2023/08/23 05:31:26;;;;;;;2.67;2.47;;;28.90;63.50;;;;;;5031356;28;20251;-72
2023/08/23 05:33:51;;;;;;;3.00;2.80;;;28.80;62.60;;;;;;5016179;28;20183;-71
2023/08/23 05:36:17;;;;;;;2.80;2.60;;;28.90;62.70;;;;;;5016208;28;20303;-72
2023/08/23 05:38:42;;;;;;;3.00;2.80;;;28.90;62.70;;;;;;5016038;28;20196;-70
2023/08/23 05:41:08;;;;;;;3.10;2.80;;;28.90;62.70;;;;;;5015893;28;20271;-72
2023/08/23 05:43:33;;;;;;;4.83;2.60;;;28.90;62.70;;;;;;5016050;28;20637;-70
2023/08/23 05:45:59;;;;;;;3.30;3.10;;;28.90;62.60;;;;;;5031064;28;20199;-72
2023/08/23 05:48:25;;;;;;;2.90;2.70;;;28.90;62.70;;;;;;5015903;28;20175;-72
2023/08/23 05:50:50;;;;;;;3.20;2.90;;;28.90;62.70;;;;;;5015809;28;20423;-73
2023/08/23 05:53:19;;;;;;;2.73;2.53;;;28.90;62.70;;;;;;5015850;28;20180;-72
2023/08/23 05:55:49;;;;;;;2.73;2.53;;;28.90;62.60;;;;;;5031061;28;20176;-71
2023/08/23 05:58:17;;;;;;;3.50;3.20;;;28.90;62.60;;;;;;5015690;28;20419;-73
2023/08/23 06:00:44;;;;;;;2.97;2.77;;;28.90;62.70;;;;;;5015754;28;20474;-73
2023/08/23 06:03:09;;;;;;;2.83;2.63;;;28.90;62.60;;;;;;5015735;28;20407;-73
2023/08/23 06:05:35;;;;;;;3.20;2.90;;;28.90;62.60;;;;;;5015615;28;20422;-73
2023/08/23 06:08:03;;;;;;;3.30;3.10;;;28.90;62.70;;;;;;5015923;28;20196;-73
2023/08/23 06:10:29;;;;;;;3.83;3.27;;;28.90;62.70;;;;;;5015382;28;20433;-73
2023/08/23 06:12:55;;;;;;;2.80;2.60;;;28.90;62.70;;;;;;5015601;28;20850;-73
2023/08/23 06:15:20;;;;;;;3.10;2.80;;;28.90;62.70;;;;;;4997698;28;20547;-72
2023/08/23 06:17:46;;;;;;;2.73;2.53;;;28.90;62.70;;;;;;4997485;28;20276;-75
2023/08/23 06:20:12;;;;;;;3.27;2.73;;;28.90;62.70;;;;;;4996837;28;20907;-72
2023/08/23 06:22:38;;;;;;;3.10;2.80;;;28.90;62.70;;;;;;5015212;28;20168;-73
2023/08/23 06:25:06;;;;;;;2.70;2.50;;;28.90;62.70;;;;;;5014991;28;20168;-71
2023/08/23 06:27:32;;;;;;;3.13;2.93;;;28.90;62.70;;;;;;5014828;28;20404;-74
2023/08/23 06:29:57;;;;;;;2.63;2.43;;;28.90;62.70;;;;;;5014730;28;20562;-73
2023/08/23 06:32:29;;;;;;;2.90;2.70;;;28.90;62.70;;;;;;4997021;28;20250;-73
2023/08/23 06:34:55;;;;;;;2.70;2.50;;;28.90;62.70;;;;;;5015318;28;20212;-73
2023/08/23 06:37:23;;;;;;;2.80;2.50;;;28.90;62.70;;;;;;5014821;28;20431;-73
2023/08/23 06:39:50;;;;;;;3.10;2.90;;;28.90;62.80;;;;;;5014648;28;20254;-73
2023/08/23 06:42:17;;;;;;;2.87;2.67;;;28.90;62.80;;;;;;5015072;28;20423;-73
2023/08/23 06:44:43;;;;;;;2.83;2.63;;;28.90;62.80;;;;;;5015219;28;20462;-72
2023/08/23 06:47:09;;;;;;;2.60;2.40;;;28.90;62.80;;;;;;5015129;28;20917;-73
2023/08/23 06:49:35;;;;;;;2.80;2.60;;;28.90;62.80;;;;;;5014725;28;20415;-73
2023/08/23 06:52:01;;;;;;;3.00;2.70;;;28.90;63.60;;;;;;5014539;28;20526;-73
2023/08/23 06:54:26;;;;;;;3.20;2.77;;;29.00;62.90;;;;;;5014412;28;20176;-73
2023/08/23 06:56:52;;;;;;;2.90;2.70;;;28.90;62.80;;;;;;5013696;28;20608;-73
2023/08/23 06:59:17;;;;;;;2.50;2.30;;;28.90;62.80;;;;;;5028825;28;20236;-73
2023/08/23 07:01:43;;;;;;;2.80;2.60;;;28.90;62.90;;;;;;5013678;28;20240;-74
2023/08/23 07:04:09;;;;;;;2.70;2.50;;;29.00;62.90;;;;;;5013468;28;20171;-72
2023/08/23 07:06:34;;;;;;;3.30;3.07;;;28.90;62.80;;;;;;5013672;28;20597;-73
2023/08/23 07:09:00;;;;;;;2.80;2.60;;;28.90;62.80;;;;;;5013659;28;20177;-73
2023/08/23 07:11:25;;;;;;;2.90;2.70;;;29.00;63.00;;;;;;5013530;28;20680;-73
2023/08/23 07:13:51;;;;;;;3.03;2.83;;;28.90;62.80;;;;;;5013732;28;20223;-72
2023/08/23 07:16:16;;;;;;;2.93;2.53;;;29.00;62.90;;;;;;5013714;28;20231;-71
2023/08/23 07:18:42;;;;;;;3.17;2.97;;;29.00;62.90;;;;;;5013482;28;20180;-73
2023/08/23 07:21:09;;;;;;;3.70;2.80;;;29.00;63.00;;;;;;5013414;28;20680;-72
2023/08/23 07:23:35;;;;;;;2.93;2.73;;;29.00;63.00;;;;;;5013870;28;20173;-73
2023/08/23 07:26:02;;;;;;;3.27;2.97;;;29.00;63.00;;;;;;4996223;28;20485;-72
2023/08/23 07:28:28;;;;;;;3.03;2.73;;;29.00;63.00;;;;;;5013643;28;20183;-72
2023/08/23 07:30:57;;;;;;;2.90;2.70;;;29.00;63.00;;;;;;5012858;28;20423;-73
2023/08/23 07:33:26;;;;;;;2.83;2.63;;;29.00;63.00;;;;;;5013831;28;20759;-72
2023/08/23 07:35:57;;;;;;;3.13;2.80;;;28.90;62.90;;;;;;4996245;28;20994;-73
2023/08/23 07:38:23;;;;;;;3.37;2.90;;;28.90;62.80;;;;;;5013810;28;20416;-72
2023/08/23 07:40:58;;;;;;;2.73;2.40;;;29.00;62.90;;;;;;5013562;28;20994;-72
2023/08/23 07:43:24;;;;;;;3.33;3.03;;;28.90;62.80;;;;;;5014270;28;20399;-71
2023/08/23 07:45:57;;;;;;;5.30;3.60;;;29.00;62.90;;;;;;5014219;28;20785;-72
2023/08/23 07:48:31;;;;;;;4.20;3.80;;;29.00;62.80;;;;;;5014000;28;20419;-71
2023/08/23 07:51:00;;;;;;;3.83;3.53;;;29.00;62.80;;;;;;5011775;28;20430;-72
2023/08/23 07:53:26;;;;;;;3.60;3.33;;;29.00;62.90;;;;;;5013908;28;20419;-71
2023/08/23 07:55:51;;;;;;;4.23;3.90;;;28.90;62.80;;;;;;5013247;28;20414;-72
2023/08/23 07:58:17;;;;;;;4.50;4.10;;;28.90;62.80;;;;;;5013758;28;20211;-72
2023/08/23 08:00:43;;;;;;;3.60;3.30;;;28.90;62.80;;;;;;5013679;28;20204;-72
2023/08/23 08:03:11;;;;;;;4.20;3.80;;;28.90;62.70;;;;;;4996199;28;20527;-73
2023/08/23 08:05:37;;;;;;;3.77;3.57;;;29.00;62.70;;;;;;5013850;28;20176;-72
2023/08/23 08:08:05;;;;;;;4.03;3.63;;;29.00;62.80;;;;;;5013936;28;20403;-72
2023/08/23 08:10:31;;;;;;;5.03;4.10;;;29.00;62.70;;;;;;5013943;28;20427;-71
2023/08/23 08:12:58;;;;;;;4.23;3.83;;;28.90;62.60;;;;;;5013927;28;20418;-72
2023/08/23 08:15:27;;;;;;;4.80;4.20;;;28.90;62.60;;;;;;5013310;28;20169;-73
2023/08/23 08:17:53;;;;;;;5.03;4.10;;;29.00;62.60;;;;;;5029486;28;20449;-71
2023/08/23 08:20:19;;;;;;;4.07;3.73;;;29.00;62.60;;;;;;5032621;28;20477;-72
2023/08/23 08:22:48;;;;;;;6.13;4.20;;;29.00;62.50;;;;;;5032905;28;20175;-72
2023/08/23 08:25:13;;;;;;;4.40;4.07;;;29.00;62.40;;;;;;5032717;28;20415;-72
2023/08/23 08:27:39;;;;;;;5.03;3.93;;;28.90;62.40;;;;;;5032600;28;20417;-73
2023/08/23 08:30:05;;;;;;;6.17;4.00;;;29.00;62.40;;;;;;5014330;28;20234;-72
2023/08/23 08:32:31;;;;;;;4.70;4.30;;;29.00;62.40;;;;;;5032689;28;20582;-72
2023/08/23 08:34:56;;;;;;;4.50;4.10;;;29.00;62.40;;;;;;5032544;28;20449;-71
2023/08/23 08:37:23;;;;;;;4.27;3.90;;;29.00;63.30;;;;;;5047815;28;20596;-72
2023/08/23 08:39:49;;;;;;;4.40;4.10;;;29.00;62.30;;;;;;5013449;28;20211;-72
2023/08/23 08:42:15;;;;;;;4.90;4.50;;;29.00;62.30;;;;;;4994498;28;20944;-72
2023/08/23 08:44:42;;;;;;;5.77;4.00;;;29.00;62.20;;;;;;5012618;28;20439;-71
2023/08/23 08:47:07;;;;;;;4.93;4.53;;;29.00;62.20;;;;;;5012698;28;20424;-72
2023/08/23 08:49:33;;;;;;;4.27;3.87;;;29.00;62.20;;;;;;5012608;28;20417;-72
2023/08/23 08:52:00;;;;;;;4.70;4.30;;;29.00;62.20;;;;;;5010898;28;20218;-72
2023/08/23 08:54:27;;;;;;;4.90;4.47;;;29.00;62.20;;;;;;5012516;28;20183;-70
2023/08/23 08:56:53;;;;;;;4.60;4.20;;;29.00;62.10;;;;;;5012589;28;20547;-72
2023/08/23 08:59:19;;;;;;;5.30;4.00;;;29.00;62.10;;;;;;5012353;28;20493;-70
2023/08/23 09:01:45;;;;;;;5.20;4.70;;;29.00;62.20;;;;;;5012394;28;20478;-72
2023/08/23 09:04:11;;;;;;;3.83;3.60;;;29.00;62.20;;;;;;5012659;28;20164;-72
2023/08/23 09:06:37;;;;;;;4.00;3.70;;;29.00;62.10;;;;;;5012507;28;20473;-72
2023/08/23 09:09:04;;;;;;;4.63;4.30;;;29.00;62.10;;;;;;5012564;28;20208;-72
2023/08/23 09:11:35;;;;;;;4.30;3.87;;;29.00;62.10;;;;;;5012376;28;20955;-72
2023/08/23 09:14:17;;;;;;;4.90;4.40;;;29.00;62.10;;;;;;5012243;28;20400;-74
2023/08/23 09:16:44;;;;;;;4.93;3.97;;;29.00;62.10;;;;;;5012222;28;20410;-72
2023/08/23 09:19:13;;;;;;;4.17;3.80;;;29.00;62.10;;;;;;5012464;28;20459;-71
2023/08/23 09:21:47;;;;;;;4.80;4.07;;;29.00;62.10;;;;;;5012307;28;20423;-72
2023/08/23 09:24:12;;;;;;;4.23;3.80;;;29.00;62.10;;;;;;5012356;28;20897;-74
2023/08/23 09:26:38;;;;;;;5.10;3.33;;;29.00;62.20;;;;;;5012620;28;20414;-73
2023/08/23 09:29:05;;;;;;;4.50;4.10;;;29.00;62.20;;;;;;5012278;28;20188;-72
2023/08/23 09:31:30;;;;;;;4.17;3.77;;;29.00;62.20;;;;;;5012353;28;20438;-72
2023/08/23 09:33:56;;;;;;;4.50;4.20;;;29.00;62.20;;;;;;4994969;28;20415;-73
2023/08/23 09:36:29;;;;;;;4.73;3.73;;;29.00;62.20;;;;;;5012631;28;20179;-71
2023/08/23 09:38:59;;;;;;;4.10;3.80;;;29.00;62.20;;;;;;4994936;28;20459;-69
2023/08/23 09:41:25;;;;;;;3.60;3.30;;;29.00;62.20;;;;;;5012652;28;21075;-72
2023/08/23 09:43:54;;;;;;;3.90;3.60;;;29.00;62.30;;;;;;5012855;28;20419;-73
2023/08/23 09:46:25;;;;;;;4.40;3.77;;;29.00;62.30;;;;;;5012143;28;20418;-73
2023/08/23 09:48:53;;;;;;;4.17;3.77;;;29.00;62.30;;;;;;5012096;28;20758;-73
2023/08/23 09:51:26;;;;;;;4.00;3.70;;;29.00;62.30;;;;;;5012142;28;20882;-72
2023/08/23 09:53:56;;;;;;;5.60;3.83;;;29.00;62.30;;;;;;5012193;28;20388;-73
2023/08/23 09:56:22;;;;;;;6.03;3.80;;;29.00;62.30;;;;;;5015947;28;20395;-72
2023/08/23 09:58:48;;;;;;;5.10;3.77;;;29.00;62.40;;;;;;5015535;28;20780;-73
2023/08/23 10:01:19;;;;;;;4.50;4.10;;;29.00;62.40;;;;;;5015784;28;20459;-73
2023/08/23 10:03:44;;;;;;;4.20;3.80;;;29.00;62.40;;;;;;5015741;28;20407;-73
2023/08/23 10:06:13;;;;;;;4.60;3.80;;;29.00;62.40;;;;;;5015673;28;20490;-72
2023/08/23 10:08:39;;;;;;;3.90;3.60;;;29.00;62.40;;;;;;4997913;28;20238;-74
2023/08/23 10:11:05;;;;;;;4.13;3.83;;;29.00;62.40;;;;;;5015271;28;20431;-72
2023/08/23 10:13:33;;;;;;;3.80;3.50;;;29.00;62.40;;;;;;5015333;28;20473;-72
2023/08/23 10:16:00;;;;;;;3.63;3.33;;;29.00;62.40;;;;;;5015372;28;20175;-73
2023/08/23 10:18:29;;;;;;;4.97;4.00;;;29.00;62.40;;;;;;5015354;28;20402;-73
2023/08/23 10:20:56;;;;;;;3.83;3.53;;;29.00;62.40;;;;;;5015223;28;20522;-72
2023/08/23 10:23:22;;;;;;;4.07;3.63;;;29.00;62.50;;;;;;5015252;28;20934;-73
2023/08/23 10:25:48;;;;;;;4.13;3.73;;;29.00;62.50;;;;;;5015346;28;20435;-72
2023/08/23 10:28:18;;;;;;;4.10;3.83;;;29.00;62.50;;;;;;5014426;28;20407;-72
2023/08/23 10:30:46;;;;;;;3.50;3.20;;;29.00;62.50;;;;;;5014672;28;20496;-73
2023/08/23 10:33:14;;;;;;;5.13;4.63;;;29.00;62.50;;;;;;5033952;28;20890;-73
2023/08/23 10:35:41;;;;;;;4.10;3.70;;;29.00;62.50;;;;;;5034771;28;20943;-73
2023/08/23 10:38:07;;;;;;;3.93;3.47;;;29.00;62.50;;;;;;5034440;28;20406;-71
2023/08/23 10:40:34;;;;;;;4.03;3.63;;;29.10;62.60;;;;;;5034027;28;20465;-72
2023/08/23 10:43:10;;;;;;;3.67;3.37;;;29.10;62.60;;;;;;5034267;28;20414;-73
2023/08/23 10:45:52;;;;;;;3.73;3.43;;;29.10;62.60;;;;;;5033710;28;20398;-71
2023/08/23 10:48:20;;;;;;;4.20;3.77;;;29.10;62.50;;;;;;5033834;28;20410;-74
2023/08/23 10:50:47;;;;;;;3.70;3.30;;;29.00;62.60;;;;;;5034300;28;20438;-73
2023/08/23 10:53:16;;;;;;;3.67;3.37;;;29.10;62.60;;;;;;5034336;28;20489;-73
2023/08/23 10:55:42;;;;;;;3.53;3.23;;;29.00;62.50;;;;;;5034398;28;20410;-73
2023/08/23 10:58:08;;;;;;;3.67;3.33;;;29.10;62.60;;;;;;5034370;28;20936;-72
2023/08/23 11:00:33;;;;;;;4.27;3.87;;;29.10;62.60;;;;;;5034219;28;20464;-73
2023/08/23 11:03:00;;;;;;;4.03;3.63;;;29.10;62.60;;;;;;5034143;28;20679;-73
2023/08/23 11:05:26;;;;;;;3.90;3.50;;;29.10;62.60;;;;;;5033802;28;20176;-73
2023/08/23 11:07:52;;;;;;;3.57;3.27;;;29.10;62.60;;;;;;5034343;28;20410;-72
2023/08/23 11:10:21;;;;;;;3.83;3.53;;;29.10;62.70;;;;;;5033841;28;20456;-72
2023/08/23 11:12:46;;;;;;;4.20;3.80;;;29.10;62.60;;;;;;5023347;28;20187;-72
2023/08/23 11:15:12;;;;;;;3.73;3.43;;;29.10;62.70;;;;;;5014339;28;20858;-73
2023/08/23 11:17:38;;;;;;;3.67;3.37;;;29.10;62.60;;;;;;5014184;28;20173;-73
2023/08/23 11:20:05;;;;;;;3.97;3.60;;;29.10;62.70;;;;;;5013977;28;20681;-72
2023/08/23 11:22:30;;;;;;;6.80;3.80;;;29.10;62.60;;;;;;5014113;28;20601;-73
2023/08/23 11:24:59;;;;;;;4.03;3.63;;;29.10;62.60;;;;;;5013606;28;20486;-71
2023/08/23 11:27:24;;;;;;;3.27;3.07;;;29.10;62.60;;;;;;5013167;28;20650;-71
2023/08/23 11:29:50;;;;;;;4.00;3.70;;;29.10;62.60;;;;;;5012630;28;20414;-73
2023/08/23 11:32:16;;;;;;;3.87;3.43;;;29.10;62.60;;;;;;5013532;28;20200;-71
2023/08/23 11:34:42;;;;;;;3.83;3.53;;;29.10;62.60;;;;;;5013244;28;20223;-73
2023/08/23 11:37:08;;;;;;;3.30;3.00;;;29.10;62.60;;;;;;5013681;28;20435;-73
2023/08/23 11:39:34;;;;;;;3.97;3.43;;;29.10;62.60;;;;;;5013693;28;20543;-73
2023/08/23 11:42:00;;;;;;;5.33;3.50;;;29.10;62.60;;;;;;5013588;28;20489;-72
2023/08/23 11:44:27;;;;;;;3.73;3.40;;;29.10;62.60;;;;;;5013698;28;20199;-72
2023/08/23 11:46:55;;;;;;;3.27;3.03;;;29.10;62.60;;;;;;5013321;28;20184;-72
2023/08/23 11:49:22;;;;;;;3.20;2.80;;;29.10;62.70;;;;;;5013538;28;20909;-72
2023/08/23 11:51:50;;;;;;;4.70;3.67;;;29.10;62.60;;;;;;5012251;28;20437;-71
2023/08/23 11:54:16;;;;;;;3.77;3.47;;;29.10;62.60;;;;;;5011888;28;20821;-73
2023/08/23 11:56:45;;;;;;;4.20;3.40;;;29.10;62.60;;;;;;4995720;28;20506;-72
2023/08/23 11:59:11;;;;;;;3.60;3.30;;;29.10;62.60;;;;;;5012660;28;20840;-72
2023/08/23 12:01:42;;;;;;;3.50;3.17;;;29.10;62.70;;;;;;5012836;28;20443;-71
2023/08/23 12:04:11;;;;;;;4.00;3.70;;;29.10;62.70;;;;;;5013457;28;20396;-72
2023/08/23 12:06:37;;;;;;;3.83;3.40;;;29.10;62.70;;;;;;5013549;28;20945;-71
2023/08/23 12:09:03;;;;;;;2.90;2.67;;;29.10;62.70;;;;;;4995740;28;20426;-72
2023/08/23 12:11:30;;;;;;;3.03;2.83;;;29.10;62.60;;;;;;5013236;28;20437;-70
2023/08/23 12:13:55;;;;;;;4.00;3.43;;;29.10;62.70;;;;;;5013316;28;20411;-71
2023/08/23 12:16:21;;;;;;;5.10;3.37;;;29.10;62.70;;;;;;5013140;28;20916;-71
2023/08/23 12:18:48;;;;;;;3.73;3.43;;;29.10;62.70;;;;;;5012610;28;20176;-72
2023/08/23 12:21:15;;;;;;;3.77;3.43;;;29.10;62.70;;;;;;5013121;28;20200;-71
2023/08/23 12:23:40;;;;;;;3.70;3.40;;;29.10;62.70;;;;;;5013034;28;20407;-70
2023/08/23 12:26:06;;;;;;;3.67;3.30;;;29.10;62.70;;;;;;5013015;28;20418;-72
2023/08/23 12:28:31;;;;;;;4.13;3.53;;;29.10;62.70;;;;;;5013049;28;20172;-72
2023/08/23 12:30:57;;;;;;;3.83;3.50;;;29.10;62.70;;;;;;5013131;28;20197;-72
2023/08/23 12:33:22;;;;;;;3.77;3.37;;;29.10;62.70;;;;;;5013017;28;20549;-71
2023/08/23 12:35:48;;;;;;;3.47;3.17;;;29.10;62.70;;;;;;5012980;28;20180;-72
2023/08/23 12:38:14;;;;;;;3.90;3.50;;;29.10;62.70;;;;;;5012845;28;20541;-71
2023/08/23 12:40:39;;;;;;;3.57;3.30;;;29.10;62.80;;;;;;5012770;28;20274;-71
2023/08/23 12:43:05;;;;;;;3.60;3.30;;;29.10;62.70;;;;;;5013161;28;20172;-72
2023/08/23 12:45:31;;;;;;;3.70;3.40;;;29.10;62.70;;;;;;5012721;28;20630;-72